sensor_id;sensor_type;location;lat;lon;timestamp;temperature;humidity
37974;DHT22;23796;51.458;7.000;2023-02-02T00:02:10;6.00;99.90
37974;DHT22;23796;51.458;7.000;2023-02-02T00:04:38;6.00;99.90
37974;DHT22;23796;51.458;7.000;2023-02-02T00:07:08;6.00;99.90
37974;DHT22;23796;51.458;7.000;2023-02-02T00:09:33;6.10;99.90
37974;DHT22;23796;51.458;7.000;2023-02-02T00:11:59;6.10;99.90
37974;DHT22;23796;51.458;7.000;2023-02-02T00:14:25;6.00;99.90
37974;DHT22;23796;51.458;7.000;2023-02-02T00:16:52;6.00;99.90
37974;DHT22;23796;51.458;7.000;2023-02-02T00:19:23;6.00;99.90
37974;DHT22;23796;51.458;7.000;2023-02-02T00:21:51;6.00;99.90
37974;DHT22;23796;51.458;7.000;2023-02-02T00:24:17;6.10;99.90
37974;DHT22;23796;51.458;7.000;2023-02-02T00:26:47;6.20;99.90
37974;DHT22;23796;51.458;7.000;2023-02-02T00:29:19;6.20;99.90
37974;DHT22;23796;51.458;7.000;2023-02-02T00:31:45;6.20;99.90
37974;DHT22;23796;51.458;7.000;2023-02-02T00:34:12;6.20;99.90
37974;DHT22;23796;51.458;7.000;2023-02-02T00:36:38;6.20;99.90
37974;DHT22;23796;51.458;7.000;2023-02-02T00:39:07;6.20;99.90
37974;DHT22;23796;51.458;7.000;2023-02-02T00:41:34;6.30;99.90
37974;DHT22;23796;51.458;7.000;2023-02-02T00:44:00;6.30;99.90
37974;DHT22;23796;51.458;7.000;2023-02-02T00:46:44;6.30;99.90
37974;DHT22;23796;51.458;7.000;2023-02-02T00:49:10;6.40;99.90
37974;DHT22;23796;51.458;7.000;2023-02-02T00:51:36;6.40;99.90
37974;DHT22;23796;51.458;7.000;2023-02-02T00:54:04;6.40;99.90
37974;DHT22;23796;51.458;7.000;2023-02-02T00:56:32;6.40;99.90
37974;DHT22;23796;51.458;7.000;2023-02-02T00:59:00;6.50;99.90
37974;DHT22;23796;51.458;7.000;2023-02-02T01:01:26;6.50;99.90
37974;DHT22;23796;51.458;7.000;2023-02-02T01:03:52;6.40;99.90
37974;DHT22;23796;51.458;7.000;2023-02-02T01:06:18;6.50;99.90
37974;DHT22;23796;51.458;7.000;2023-02-02T01:08:43;6.50;99.90
37974;DHT22;23796;51.458;7.000;2023-02-02T01:11:09;6.50;99.90
37974;DHT22;23796;51.458;7.000;2023-02-02T01:13:35;6.50;99.90
37974;DHT22;23796;51.458;7.000;2023-02-02T01:16:02;6.60;99.90
37974;DHT22;23796;51.458;7.000;2023-02-02T01:18:28;6.60;99.90
37974;DHT22;23796;51.458;7.000;2023-02-02T01:21:04;6.60;99.90
37974;DHT22;23796;51.458;7.000;2023-02-02T01:23:31;6.60;99.90
37974;DHT22;23796;51.458;7.000;2023-02-02T01:26:01;6.70;99.90
37974;DHT22;23796;51.458;7.000;2023-02-02T01:28:31;6.70;99.90
37974;DHT22;23796;51.458;7.000;2023-02-02T01:30:57;6.70;99.90
37974;DHT22;23796;51.458;7.000;2023-02-02T01:33:23;6.70;99.90
37974;DHT22;23796;51.458;7.000;2023-02-02T01:35:54;6.70;99.90
37974;DHT22;23796;51.458;7.000;2023-02-02T01:38:23;6.80;99.90
37974;DHT22;23796;51.458;7.000;2023-02-02T01:45:52;6.90;99.90
37974;DHT22;23796;51.458;7.000;2023-02-02T01:48:31;6.90;99.90
37974;DHT22;23796;51.458;7.000;2023-02-02T01:51:04;7.00;99.90
37974;DHT22;23796;51.458;7.000;2023-02-02T01:53:31;7.00;99.90
37974;DHT22;23796;51.458;7.000;2023-02-02T01:56:01;7.10;99.90
37974;DHT22;23796;51.458;7.000;2023-02-02T01:58:30;7.10;99.90
37974;DHT22;23796;51.458;7.000;2023-02-02T02:00:57;7.10;99.90
37974;DHT22;23796;51.458;7.000;2023-02-02T02:03:27;7.20;99.90
37974;DHT22;23796;51.458;7.000;2023-02-02T02:06:03;7.20;99.90
37974;DHT22;23796;51.458;7.000;2023-02-02T02:08:36;7.20;99.90
37974;DHT22;23796;51.458;7.000;2023-02-02T02:11:02;7.20;99.90
37974;DHT22;23796;51.458;7.000;2023-02-02T02:13:29;7.20;99.90
37974;DHT22;23796;51.458;7.000;2023-02-02T02:22:12;7.20;99.90
37974;DHT22;23796;51.458;7.000;2023-02-02T02:25:30;7.20;99.90
37974;DHT22;23796;51.458;7.000;2023-02-02T02:34:51;7.20;99.90
37974;DHT22;23796;51.458;7.000;2023-02-02T02:40:05;7.20;99.90
37974;DHT22;23796;51.458;7.000;2023-02-02T02:42:38;7.10;99.90
37974;DHT22;23796;51.458;7.000;2023-02-02T02:45:07;7.10;99.90
37974;DHT22;23796;51.458;7.000;2023-02-02T02:47:34;7.10;99.90
37974;DHT22;23796;51.458;7.000;2023-02-02T02:50:01;7.10;99.90
37974;DHT22;23796;51.458;7.000;2023-02-02T02:52:29;7.00;99.90
37974;DHT22;23796;51.458;7.000;2023-02-02T02:54:57;6.90;99.90
37974;DHT22;23796;51.458;7.000;2023-02-02T02:58:06;6.90;99.90
37974;DHT22;23796;51.458;7.000;2023-02-02T03:00:38;6.90;99.90
37974;DHT22;23796;51.458;7.000;2023-02-02T03:03:40;6.90;99.90
37974;DHT22;23796;51.458;7.000;2023-02-02T03:06:35;6.90;99.90
37974;DHT22;23796;51.458;7.000;2023-02-02T03:09:07;7.00;99.90
37974;DHT22;23796;51.458;7.000;2023-02-02T03:11:34;6.90;99.90
37974;DHT22;23796;51.458;7.000;2023-02-02T03:14:05;6.90;99.90
37974;DHT22;23796;51.458;7.000;2023-02-02T03:16:34;6.90;99.90
37974;DHT22;23796;51.458;7.000;2023-02-02T03:19:00;6.90;99.90
37974;DHT22;23796;51.458;7.000;2023-02-02T03:21:29;6.90;99.90
37974;DHT22;23796;51.458;7.000;2023-02-02T03:23:57;6.90;99.90
37974;DHT22;23796;51.458;7.000;2023-02-02T03:26:22;6.90;99.90
37974;DHT22;23796;51.458;7.000;2023-02-02T03:28:51;6.90;99.90
37974;DHT22;23796;51.458;7.000;2023-02-02T03:31:17;7.00;99.90
37974;DHT22;23796;51.458;7.000;2023-02-02T03:33:45;7.00;99.90
37974;DHT22;23796;51.458;7.000;2023-02-02T03:36:13;7.00;99.90
37974;DHT22;23796;51.458;7.000;2023-02-02T03:38:39;6.90;99.90
37974;DHT22;23796;51.458;7.000;2023-02-02T03:41:06;6.90;99.90
37974;DHT22;23796;51.458;7.000;2023-02-02T03:43:31;6.90;99.90
37974;DHT22;23796;51.458;7.000;2023-02-02T03:45:57;6.90;99.90
37974;DHT22;23796;51.458;7.000;2023-02-02T03:48:24;6.80;99.90
37974;DHT22;23796;51.458;7.000;2023-02-02T03:50:49;6.80;99.90
37974;DHT22;23796;51.458;7.000;2023-02-02T03:53:15;6.80;99.90
37974;DHT22;23796;51.458;7.000;2023-02-02T03:55:41;6.80;99.90
37974;DHT22;23796;51.458;7.000;2023-02-02T03:58:08;6.80;99.90
37974;DHT22;23796;51.458;7.000;2023-02-02T04:00:34;6.80;99.90
37974;DHT22;23796;51.458;7.000;2023-02-02T04:03:00;6.80;99.90
37974;DHT22;23796;51.458;7.000;2023-02-02T04:05:27;6.80;99.90
37974;DHT22;23796;51.458;7.000;2023-02-02T04:07:53;6.80;99.90
37974;DHT22;23796;51.458;7.000;2023-02-02T04:10:19;6.90;99.90
37974;DHT22;23796;51.458;7.000;2023-02-02T04:12:47;6.90;99.90
37974;DHT22;23796;51.458;7.000;2023-02-02T04:15:13;6.90;99.90
37974;DHT22;23796;51.458;7.000;2023-02-02T04:17:38;7.00;99.90
37974;DHT22;23796;51.458;7.000;2023-02-02T04:20:05;7.00;99.90
37974;DHT22;23796;51.458;7.000;2023-02-02T04:22:33;7.10;99.90
37974;DHT22;23796;51.458;7.000;2023-02-02T04:24:59;7.20;99.90
37974;DHT22;23796;51.458;7.000;2023-02-02T04:27:24;7.20;99.90
37974;DHT22;23796;51.458;7.000;2023-02-02T04:29:50;7.30;99.90
37974;DHT22;23796;51.458;7.000;2023-02-02T04:32:18;7.30;99.90
37974;DHT22;23796;51.458;7.000;2023-02-02T04:34:44;7.30;99.90
37974;DHT22;23796;51.458;7.000;2023-02-02T04:37:10;7.40;99.90
37974;DHT22;23796;51.458;7.000;2023-02-02T04:39:36;7.40;99.90
37974;DHT22;23796;51.458;7.000;2023-02-02T04:42:02;7.50;99.90
37974;DHT22;23796;51.458;7.000;2023-02-02T04:44:28;7.50;99.90
37974;DHT22;23796;51.458;7.000;2023-02-02T04:46:56;7.60;99.90
37974;DHT22;23796;51.458;7.000;2023-02-02T04:49:21;7.60;99.90
37974;DHT22;23796;51.458;7.000;2023-02-02T04:51:49;7.60;99.90
37974;DHT22;23796;51.458;7.000;2023-02-02T04:54:15;7.60;99.90
37974;DHT22;23796;51.458;7.000;2023-02-02T04:56:41;7.60;99.90
37974;DHT22;23796;51.458;7.000;2023-02-02T04:59:06;7.70;99.90
37974;DHT22;23796;51.458;7.000;2023-02-02T05:01:32;7.70;99.90
37974;DHT22;23796;51.458;7.000;2023-02-02T05:04:00;7.70;99.90
37974;DHT22;23796;51.458;7.000;2023-02-02T05:06:28;7.80;99.90
37974;DHT22;23796;51.458;7.000;2023-02-02T05:08:56;7.90;99.90
37974;DHT22;23796;51.458;7.000;2023-02-02T05:11:22;7.80;99.90
37974;DHT22;23796;51.458;7.000;2023-02-02T05:13:50;7.80;99.90
37974;DHT22;23796;51.458;7.000;2023-02-02T05:16:16;7.80;99.90
37974;DHT22;23796;51.458;7.000;2023-02-02T05:18:42;7.80;99.90
37974;DHT22;23796;51.458;7.000;2023-02-02T05:21:08;7.80;99.90
37974;DHT22;23796;51.458;7.000;2023-02-02T05:23:34;7.70;99.90
37974;DHT22;23796;51.458;7.000;2023-02-02T05:25:59;7.70;99.90
37974;DHT22;23796;51.458;7.000;2023-02-02T05:28:25;7.70;99.90
37974;DHT22;23796;51.458;7.000;2023-02-02T05:30:51;7.70;99.90
37974;DHT22;23796;51.458;7.000;2023-02-02T05:33:17;7.70;99.90
37974;DHT22;23796;51.458;7.000;2023-02-02T05:35:47;7.70;99.90
37974;DHT22;23796;51.458;7.000;2023-02-02T05:38:14;7.70;99.90
37974;DHT22;23796;51.458;7.000;2023-02-02T05:40:42;7.70;99.90
37974;DHT22;23796;51.458;7.000;2023-02-02T05:43:08;7.70;99.90
37974;DHT22;23796;51.458;7.000;2023-02-02T05:45:36;7.70;99.90
37974;DHT22;23796;51.458;7.000;2023-02-02T05:48:01;7.60;99.90
37974;DHT22;23796;51.458;7.000;2023-02-02T05:50:27;7.60;99.90
37974;DHT22;23796;51.458;7.000;2023-02-02T05:52:52;7.60;99.90
37974;DHT22;23796;51.458;7.000;2023-02-02T05:55:18;7.70;99.90
37974;DHT22;23796;51.458;7.000;2023-02-02T05:57:46;7.70;99.90
37974;DHT22;23796;51.458;7.000;2023-02-02T06:00:12;7.70;99.90
37974;DHT22;23796;51.458;7.000;2023-02-02T06:02:38;7.80;99.90
37974;DHT22;23796;51.458;7.000;2023-02-02T06:05:06;7.70;99.90
37974;DHT22;23796;51.458;7.000;2023-02-02T06:07:34;7.70;99.90
37974;DHT22;23796;51.458;7.000;2023-02-02T06:09:59;7.80;99.90
37974;DHT22;23796;51.458;7.000;2023-02-02T06:12:25;7.80;99.90
37974;DHT22;23796;51.458;7.000;2023-02-02T06:14:51;7.80;99.90
37974;DHT22;23796;51.458;7.000;2023-02-02T06:17:16;7.70;99.90
37974;DHT22;23796;51.458;7.000;2023-02-02T06:19:46;7.80;99.90
37974;DHT22;23796;51.458;7.000;2023-02-02T06:22:12;7.80;99.90
37974;DHT22;23796;51.458;7.000;2023-02-02T06:24:37;7.70;99.90
37974;DHT22;23796;51.458;7.000;2023-02-02T06:27:04;7.70;99.90
37974;DHT22;23796;51.458;7.000;2023-02-02T06:29:30;7.70;99.90
37974;DHT22;23796;51.458;7.000;2023-02-02T06:31:55;7.70;99.90
37974;DHT22;23796;51.458;7.000;2023-02-02T06:34:21;7.70;99.90
37974;DHT22;23796;51.458;7.000;2023-02-02T06:36:49;7.70;99.90
37974;DHT22;23796;51.458;7.000;2023-02-02T06:39:14;7.70;99.90
37974;DHT22;23796;51.458;7.000;2023-02-02T06:41:40;7.70;99.90
37974;DHT22;23796;51.458;7.000;2023-02-02T06:44:06;7.70;99.90
37974;DHT22;23796;51.458;7.000;2023-02-02T06:46:33;7.70;99.90
37974;DHT22;23796;51.458;7.000;2023-02-02T06:48:59;7.70;99.90
37974;DHT22;23796;51.458;7.000;2023-02-02T06:51:25;7.70;99.90
37974;DHT22;23796;51.458;7.000;2023-02-02T06:53:50;7.70;99.90
37974;DHT22;23796;51.458;7.000;2023-02-02T06:56:18;7.70;99.90
37974;DHT22;23796;51.458;7.000;2023-02-02T06:58:43;7.70;99.90
37974;DHT22;23796;51.458;7.000;2023-02-02T07:01:11;7.80;99.90
37974;DHT22;23796;51.458;7.000;2023-02-02T07:03:37;7.80;99.90
37974;DHT22;23796;51.458;7.000;2023-02-02T07:06:14;7.70;99.90
37974;DHT22;23796;51.458;7.000;2023-02-02T07:08:43;7.70;99.90
37974;DHT22;23796;51.458;7.000;2023-02-02T07:11:09;7.80;99.90
37974;DHT22;23796;51.458;7.000;2023-02-02T07:13:35;7.80;99.90
37974;DHT22;23796;51.458;7.000;2023-02-02T07:16:03;7.80;99.90
37974;DHT22;23796;51.458;7.000;2023-02-02T07:18:29;7.80;99.90
37974;DHT22;23796;51.458;7.000;2023-02-02T07:20:58;7.90;99.90
37974;DHT22;23796;51.458;7.000;2023-02-02T07:23:25;7.80;99.90
37974;DHT22;23796;51.458;7.000;2023-02-02T07:26:04;7.80;99.90
37974;DHT22;23796;51.458;7.000;2023-02-02T07:28:30;7.80;99.90
37974;DHT22;23796;51.458;7.000;2023-02-02T07:31:18;7.80;99.90
37974;DHT22;23796;51.458;7.000;2023-02-02T07:33:47;7.80;99.90
37974;DHT22;23796;51.458;7.000;2023-02-02T07:36:16;7.80;99.90
37974;DHT22;23796;51.458;7.000;2023-02-02T07:38:45;7.80;99.90
37974;DHT22;23796;51.458;7.000;2023-02-02T07:41:11;7.80;99.90
37974;DHT22;23796;51.458;7.000;2023-02-02T07:43:37;7.80;99.90
37974;DHT22;23796;51.458;7.000;2023-02-02T07:46:07;7.70;99.90
37974;DHT22;23796;51.458;7.000;2023-02-02T07:48:34;7.70;99.90
37974;DHT22;23796;51.458;7.000;2023-02-02T07:51:02;7.70;99.90
37974;DHT22;23796;51.458;7.000;2023-02-02T07:53:28;7.70;99.90
37974;DHT22;23796;51.458;7.000;2023-02-02T07:56:25;7.70;99.90
37974;DHT22;23796;51.458;7.000;2023-02-02T07:58:53;7.70;99.90
37974;DHT22;23796;51.458;7.000;2023-02-02T08:01:18;7.70;99.90
37974;DHT22;23796;51.458;7.000;2023-02-02T08:03:47;7.70;99.90
37974;DHT22;23796;51.458;7.000;2023-02-02T08:06:26;7.70;99.90
37974;DHT22;23796;51.458;7.000;2023-02-02T08:08:53;7.70;99.90
37974;DHT22;23796;51.458;7.000;2023-02-02T08:11:21;7.70;99.90
37974;DHT22;23796;51.458;7.000;2023-02-02T08:13:49;7.70;99.90
37974;DHT22;23796;51.458;7.000;2023-02-02T08:16:15;7.70;99.90
37974;DHT22;23796;51.458;7.000;2023-02-02T08:18:43;7.70;99.90
37974;DHT22;23796;51.458;7.000;2023-02-02T08:21:13;7.60;99.90
37974;DHT22;23796;51.458;7.000;2023-02-02T08:23:39;7.60;99.90
37974;DHT22;23796;51.458;7.000;2023-02-02T08:26:31;7.60;99.90
37974;DHT22;23796;51.458;7.000;2023-02-02T08:29:01;7.60;99.90
37974;DHT22;23796;51.458;7.000;2023-02-02T08:33:59;7.60;99.90
37974;DHT22;23796;51.458;7.000;2023-02-02T08:36:28;7.60;99.90
37974;DHT22;23796;51.458;7.000;2023-02-02T08:38:54;7.60;99.90
37974;DHT22;23796;51.458;7.000;2023-02-02T08:41:22;7.60;99.90
37974;DHT22;23796;51.458;7.000;2023-02-02T08:43:49;7.60;99.90
37974;DHT22;23796;51.458;7.000;2023-02-02T08:46:17;7.50;99.90
37974;DHT22;23796;51.458;7.000;2023-02-02T08:48:43;7.50;99.90
37974;DHT22;23796;51.458;7.000;2023-02-02T08:51:11;7.50;99.90
37974;DHT22;23796;51.458;7.000;2023-02-02T08:53:39;7.50;99.90
37974;DHT22;23796;51.458;7.000;2023-02-02T08:56:05;7.50;99.90
37974;DHT22;23796;51.458;7.000;2023-02-02T08:58:32;7.50;99.90
37974;DHT22;23796;51.458;7.000;2023-02-02T09:01:07;7.50;99.90
37974;DHT22;23796;51.458;7.000;2023-02-02T09:03:33;7.50;99.90
37974;DHT22;23796;51.458;7.000;2023-02-02T09:06:10;7.50;99.90
37974;DHT22;23796;51.458;7.000;2023-02-02T09:08:39;7.50;99.90
37974;DHT22;23796;51.458;7.000;2023-02-02T09:11:15;7.50;99.90
37974;DHT22;23796;51.458;7.000;2023-02-02T09:13:43;7.50;99.90
37974;DHT22;23796;51.458;7.000;2023-02-02T09:16:14;7.50;99.90
37974;DHT22;23796;51.458;7.000;2023-02-02T09:18:40;7.50;99.90
37974;DHT22;23796;51.458;7.000;2023-02-02T09:21:08;7.60;99.90
37974;DHT22;23796;51.458;7.000;2023-02-02T09:23:39;7.50;99.90
37974;DHT22;23796;51.458;7.000;2023-02-02T09:28:35;7.50;99.90
37974;DHT22;23796;51.458;7.000;2023-02-02T09:31:03;7.50;99.90
37974;DHT22;23796;51.458;7.000;2023-02-02T09:33:29;7.40;99.90
37974;DHT22;23796;51.458;7.000;2023-02-02T09:35:57;7.50;99.90
37974;DHT22;23796;51.458;7.000;2023-02-02T09:38:31;7.50;99.90
37974;DHT22;23796;51.458;7.000;2023-02-02T09:40:59;7.50;99.90
37974;DHT22;23796;51.458;7.000;2023-02-02T09:43:41;7.50;99.90
37974;DHT22;23796;51.458;7.000;2023-02-02T09:48:59;7.60;99.90
37974;DHT22;23796;51.458;7.000;2023-02-02T09:51:29;7.50;99.90
37974;DHT22;23796;51.458;7.000;2023-02-02T09:54:05;7.50;99.90
37974;DHT22;23796;51.458;7.000;2023-02-02T09:56:40;7.50;99.90
37974;DHT22;23796;51.458;7.000;2023-02-02T09:59:22;7.50;99.90
37974;DHT22;23796;51.458;7.000;2023-02-02T10:01:56;7.50;99.90
37974;DHT22;23796;51.458;7.000;2023-02-02T10:04:38;7.60;99.90
37974;DHT22;23796;51.458;7.000;2023-02-02T10:07:12;7.60;99.90
37974;DHT22;23796;51.458;7.000;2023-02-02T10:14:56;7.70;99.90
37974;DHT22;23796;51.458;7.000;2023-02-02T10:20:02;7.70;99.90
37974;DHT22;23796;51.458;7.000;2023-02-02T10:22:32;7.80;99.90
37974;DHT22;23796;51.458;7.000;2023-02-02T10:24:58;7.80;99.90
37974;DHT22;23796;51.458;7.000;2023-02-02T10:27:37;7.80;99.90
37974;DHT22;23796;51.458;7.000;2023-02-02T10:30:18;7.90;99.90
37974;DHT22;23796;51.458;7.000;2023-02-02T10:32:47;7.90;99.90
37974;DHT22;23796;51.458;7.000;2023-02-02T10:48:45;8.00;99.90
37974;DHT22;23796;51.458;7.000;2023-02-02T10:51:19;8.00;99.90
37974;DHT22;23796;51.458;7.000;2023-02-02T10:53:49;8.00;99.90
37974;DHT22;23796;51.458;7.000;2023-02-02T10:56:21;8.00;99.90
37974;DHT22;23796;51.458;7.000;2023-02-02T10:59:16;8.00;99.90
37974;DHT22;23796;51.458;7.000;2023-02-02T11:01:43;8.00;99.90
37974;DHT22;23796;51.458;7.000;2023-02-02T11:04:09;8.00;99.90
37974;DHT22;23796;51.458;7.000;2023-02-02T11:06:54;8.00;99.90
37974;DHT22;23796;51.458;7.000;2023-02-02T11:09:24;8.10;99.90
37974;DHT22;23796;51.458;7.000;2023-02-02T11:11:54;8.00;99.90
37974;DHT22;23796;51.458;7.000;2023-02-02T11:17:22;8.10;99.90
37974;DHT22;23796;51.458;7.000;2023-02-02T11:19:49;8.10;99.90
37974;DHT22;23796;51.458;7.000;2023-02-02T11:22:37;8.20;99.90
37974;DHT22;23796;51.458;7.000;2023-02-02T11:25:26;8.10;99.90
37974;DHT22;23796;51.458;7.000;2023-02-02T11:27:54;8.10;99.90
37974;DHT22;23796;51.458;7.000;2023-02-02T11:30:23;8.20;99.90
37974;DHT22;23796;51.458;7.000;2023-02-02T11:32:54;8.20;99.90
37974;DHT22;23796;51.458;7.000;2023-02-02T11:35:25;8.20;99.90
37974;DHT22;23796;51.458;7.000;2023-02-02T11:38:14;8.20;99.90
37974;DHT22;23796;51.458;7.000;2023-02-02T11:40:53;8.20;99.90
37974;DHT22;23796;51.458;7.000;2023-02-02T11:43:35;8.20;99.90
37974;DHT22;23796;51.458;7.000;2023-02-02T11:46:28;8.30;99.90
37974;DHT22;23796;51.458;7.000;2023-02-02T11:49:00;8.30;99.90
37974;DHT22;23796;51.458;7.000;2023-02-02T11:51:28;8.30;99.90
37974;DHT22;23796;51.458;7.000;2023-02-02T11:54:06;8.30;99.90
37974;DHT22;23796;51.458;7.000;2023-02-02T11:56:37;8.30;99.90
37974;DHT22;23796;51.458;7.000;2023-02-02T11:59:03;8.30;99.90
37974;DHT22;23796;51.458;7.000;2023-02-02T12:01:40;8.40;99.90
37974;DHT22;23796;51.458;7.000;2023-02-02T12:06:40;8.40;99.90
37974;DHT22;23796;51.458;7.000;2023-02-02T12:09:13;8.40;99.90
37974;DHT22;23796;51.458;7.000;2023-02-02T12:17:42;8.40;99.90
37974;DHT22;23796;51.458;7.000;2023-02-02T12:56:27;8.40;99.90
37974;DHT22;23796;51.458;7.000;2023-02-02T13:02:10;8.40;99.90
37974;DHT22;23796;51.458;7.000;2023-02-02T13:15:19;8.40;99.90
37974;DHT22;23796;51.458;7.000;2023-02-02T13:18:00;8.40;99.90
37974;DHT22;23796;51.458;7.000;2023-02-02T13:20:41;8.40;99.90
37974;DHT22;23796;51.458;7.000;2023-02-02T13:23:18;8.40;99.90
37974;DHT22;23796;51.458;7.000;2023-02-02T13:28:35;8.40;99.90
37974;DHT22;23796;51.458;7.000;2023-02-02T13:31:05;8.40;99.90
37974;DHT22;23796;51.458;7.000;2023-02-02T13:33:35;8.40;99.90
37974;DHT22;23796;51.458;7.000;2023-02-02T13:38:33;8.50;99.90
37974;DHT22;23796;51.458;7.000;2023-02-02T13:41:08;8.50;99.90
37974;DHT22;23796;51.458;7.000;2023-02-02T13:46:26;8.40;99.90
37974;DHT22;23796;51.458;7.000;2023-02-02T13:49:14;8.50;99.90
37974;DHT22;23796;51.458;7.000;2023-02-02T13:57:40;8.50;99.90
37974;DHT22;23796;51.458;7.000;2023-02-02T14:05:31;8.60;99.90
37974;DHT22;23796;51.458;7.000;2023-02-02T14:10:36;8.70;99.90
37974;DHT22;23796;51.458;7.000;2023-02-02T14:16:00;8.60;99.90
37974;DHT22;23796;51.458;7.000;2023-02-02T14:18:59;8.50;99.90
37974;DHT22;23796;51.458;7.000;2023-02-02T14:27:01;8.10;99.90
37974;DHT22;23796;51.458;7.000;2023-02-02T14:35:00;8.10;99.90
37974;DHT22;23796;51.458;7.000;2023-02-02T14:40:51;8.10;99.90
37974;DHT22;23796;51.458;7.000;2023-02-02T14:43:47;8.10;99.90
37974;DHT22;23796;51.458;7.000;2023-02-02T14:46:23;8.30;99.90
37974;DHT22;23796;51.458;7.000;2023-02-02T14:51:25;8.50;99.90
37974;DHT22;23796;51.458;7.000;2023-02-02T14:54:02;8.60;99.90
37974;DHT22;23796;51.458;7.000;2023-02-02T14:56:41;8.70;99.90
37974;DHT22;23796;51.458;7.000;2023-02-02T14:59:20;8.80;99.90
37974;DHT22;23796;51.458;7.000;2023-02-02T15:02:22;8.80;99.90
37974;DHT22;23796;51.458;7.000;2023-02-02T15:04:52;8.80;99.90
37974;DHT22;23796;51.458;7.000;2023-02-02T15:07:50;8.90;99.90
37974;DHT22;23796;51.458;7.000;2023-02-02T15:13:23;8.70;99.90
37974;DHT22;23796;51.458;7.000;2023-02-02T15:15:54;8.70;99.90
37974;DHT22;23796;51.458;7.000;2023-02-02T15:18:28;8.60;99.90
37974;DHT22;23796;51.458;7.000;2023-02-02T15:21:03;8.70;99.90
37974;DHT22;23796;51.458;7.000;2023-02-02T15:23:33;8.80;99.90
37974;DHT22;23796;51.458;7.000;2023-02-02T15:28:48;8.60;99.90
37974;DHT22;23796;51.458;7.000;2023-02-02T15:31:35;8.60;99.90
37974;DHT22;23796;51.458;7.000;2023-02-02T15:36:46;8.70;99.90
37974;DHT22;23796;51.458;7.000;2023-02-02T15:39:28;8.80;99.90
37974;DHT22;23796;51.458;7.000;2023-02-02T15:42:00;8.80;99.90
37974;DHT22;23796;51.458;7.000;2023-02-02T15:44:45;8.80;99.90
37974;DHT22;23796;51.458;7.000;2023-02-02T15:47:18;8.80;99.90
37974;DHT22;23796;51.458;7.000;2023-02-02T15:49:47;8.80;99.90
37974;DHT22;23796;51.458;7.000;2023-02-02T15:52:25;8.80;99.90
37974;DHT22;23796;51.458;7.000;2023-02-02T15:54:56;8.80;99.90
37974;DHT22;23796;51.458;7.000;2023-02-02T15:57:32;8.80;99.90
37974;DHT22;23796;51.458;7.000;2023-02-02T15:59:59;8.90;99.90
37974;DHT22;23796;51.458;7.000;2023-02-02T16:02:36;8.80;99.90
37974;DHT22;23796;51.458;7.000;2023-02-02T16:05:37;8.70;99.90
37974;DHT22;23796;51.458;7.000;2023-02-02T16:08:36;8.60;99.90
37974;DHT22;23796;51.458;7.000;2023-02-02T16:13:30;8.60;99.90
37974;DHT22;23796;51.458;7.000;2023-02-02T16:16:05;8.60;99.90
37974;DHT22;23796;51.458;7.000;2023-02-02T16:18:35;8.60;99.90
37974;DHT22;23796;51.458;7.000;2023-02-02T16:21:08;8.60;99.90
37974;DHT22;23796;51.458;7.000;2023-02-02T16:23:35;8.60;99.90
37974;DHT22;23796;51.458;7.000;2023-02-02T16:26:03;8.60;99.90
37974;DHT22;23796;51.458;7.000;2023-02-02T16:28:30;8.50;99.90
37974;DHT22;23796;51.458;7.000;2023-02-02T16:31:01;8.50;99.90
37974;DHT22;23796;51.458;7.000;2023-02-02T16:33:35;8.40;99.90
37974;DHT22;23796;51.458;7.000;2023-02-02T16:36:24;8.50;99.90
37974;DHT22;23796;51.458;7.000;2023-02-02T16:38:49;8.50;99.90
37974;DHT22;23796;51.458;7.000;2023-02-02T16:43:52;8.40;99.90
37974;DHT22;23796;51.458;7.000;2023-02-02T16:46:42;8.30;99.90
37974;DHT22;23796;51.458;7.000;2023-02-02T16:49:15;8.30;99.90
37974;DHT22;23796;51.458;7.000;2023-02-02T16:51:43;8.20;99.90
37974;DHT22;23796;51.458;7.000;2023-02-02T16:54:21;8.30;99.90
37974;DHT22;23796;51.458;7.000;2023-02-02T16:56:50;8.20;99.90
37974;DHT22;23796;51.458;7.000;2023-02-02T16:59:31;8.20;99.90
37974;DHT22;23796;51.458;7.000;2023-02-02T17:02:15;8.30;99.90
37974;DHT22;23796;51.458;7.000;2023-02-02T17:04:47;8.30;99.90
37974;DHT22;23796;51.458;7.000;2023-02-02T17:07:14;8.30;99.90
37974;DHT22;23796;51.458;7.000;2023-02-02T17:09:42;8.20;99.90
37974;DHT22;23796;51.458;7.000;2023-02-02T17:15:01;8.30;99.90
37974;DHT22;23796;51.458;7.000;2023-02-02T17:17:30;8.30;99.90
37974;DHT22;23796;51.458;7.000;2023-02-02T17:19:58;8.30;99.90
37974;DHT22;23796;51.458;7.000;2023-02-02T17:22:24;8.30;99.90
37974;DHT22;23796;51.458;7.000;2023-02-02T17:24:52;8.30;99.90
37974;DHT22;23796;51.458;7.000;2023-02-02T17:27:26;8.30;99.90
37974;DHT22;23796;51.458;7.000;2023-02-02T17:29:52;8.20;99.90
37974;DHT22;23796;51.458;7.000;2023-02-02T17:32:18;8.20;99.90
37974;DHT22;23796;51.458;7.000;2023-02-02T17:34:44;8.20;99.90
37974;DHT22;23796;51.458;7.000;2023-02-02T17:37:12;8.10;99.90
37974;DHT22;23796;51.458;7.000;2023-02-02T17:39:40;8.10;99.90
37974;DHT22;23796;51.458;7.000;2023-02-02T17:42:25;8.00;99.90
37974;DHT22;23796;51.458;7.000;2023-02-02T17:44:51;8.10;99.90
37974;DHT22;23796;51.458;7.000;2023-02-02T17:47:17;8.00;99.90
37974;DHT22;23796;51.458;7.000;2023-02-02T17:49:45;8.00;99.90
37974;DHT22;23796;51.458;7.000;2023-02-02T17:52:11;8.00;99.90
37974;DHT22;23796;51.458;7.000;2023-02-02T17:54:37;8.10;99.90
37974;DHT22;23796;51.458;7.000;2023-02-02T17:57:03;8.00;99.90
37974;DHT22;23796;51.458;7.000;2023-02-02T17:59:29;8.00;99.90
37974;DHT22;23796;51.458;7.000;2023-02-02T18:01:55;8.00;99.90
37974;DHT22;23796;51.458;7.000;2023-02-02T18:04:21;8.00;99.90
37974;DHT22;23796;51.458;7.000;2023-02-02T18:06:49;8.00;99.90
37974;DHT22;23796;51.458;7.000;2023-02-02T18:09:14;7.90;99.90
37974;DHT22;23796;51.458;7.000;2023-02-02T18:11:43;7.90;99.90
37974;DHT22;23796;51.458;7.000;2023-02-02T18:14:14;7.90;99.90
37974;DHT22;23796;51.458;7.000;2023-02-02T18:16:39;7.90;99.90
37974;DHT22;23796;51.458;7.000;2023-02-02T18:19:05;7.90;99.90
37974;DHT22;23796;51.458;7.000;2023-02-02T18:21:31;7.90;99.90
37974;DHT22;23796;51.458;7.000;2023-02-02T18:23:57;7.90;99.90
37974;DHT22;23796;51.458;7.000;2023-02-02T18:26:23;7.90;99.90
37974;DHT22;23796;51.458;7.000;2023-02-02T18:28:49;8.00;99.90
37974;DHT22;23796;51.458;7.000;2023-02-02T18:31:17;8.00;99.90
37974;DHT22;23796;51.458;7.000;2023-02-02T18:33:44;8.00;99.90
37974;DHT22;23796;51.458;7.000;2023-02-02T18:36:18;8.00;99.90
37974;DHT22;23796;51.458;7.000;2023-02-02T18:38:45;8.10;99.90
37974;DHT22;23796;51.458;7.000;2023-02-02T18:41:14;8.10;99.90
37974;DHT22;23796;51.458;7.000;2023-02-02T18:43:41;8.10;99.90
37974;DHT22;23796;51.458;7.000;2023-02-02T18:46:09;8.10;99.90
37974;DHT22;23796;51.458;7.000;2023-02-02T18:48:36;8.10;99.90
37974;DHT22;23796;51.458;7.000;2023-02-02T18:51:09;8.10;99.90
37974;DHT22;23796;51.458;7.000;2023-02-02T18:53:35;8.10;99.90
37974;DHT22;23796;51.458;7.000;2023-02-02T18:56:07;8.10;99.90